Startpagina
METAR-TAF:

METAR-TAF

Vliegvelden :

Salt Lake City, Utah, Verenigde Staten

Salt Lake City International Airport

breedte: 40-46-41N, lengte: 111-58-10W, hoogte: 1288 m

Actueel weer

Dit bericht is 59 minuten geleden gemaakt, om 15:54 UTC
Wind 6 kt uit het zuiden
Temperatuur 21°C
Vochtigheid 33%
Druk 1022 hPa
Zicht: 16.1 km
Weinig wolken op 8500 ft
Weinig wolken op 25000 ft

METAR: KSLC 231554Z 19006KT 10SM FEW085 FEW250 21/04 A3018 RMK AO2 SLP175 T02110044

Tijdstip: 10:53 (16:53 UTC)

Verwachting

Dit bericht is 1 uur en het 47 minuten geleden gemaakt, om 15:06 UTC
Verwachting geldig van 23 om 15 UTC tot 24 om 18 UTC
Wind 7 kt uit het zuidzuidoosten
Zicht: 10 km
Weinig wolken op 8000 ft
Verspreide wolken op 20000 ft
Van 23 om 1700 UTC
Wind 8 kt uit het noordwesten
Zicht: 10 km
Weinig wolken op 20000 ft
Van 24 om 0300 UTC
Wind 7 kt uit het zuidoosten
Zicht: 10 km
Onbewolkt

TAF: KSLC 231506Z 2315/2418 15007KT P6SM FEW080 SCT200 FM231700 32008KT P6SM FEW200 FM240300 14007KT P6SM SKC

Waarnemingen en weersverwachtingen van meer dan 4000 vliegvelden (METAR en TAF).

De beschikbare stations zijn de gele en rode punten op de kaart.

Ga met uw muis naar het station om de naam te zien.

Klik dan om waarnemingen en weersverwachtingen te zien.

kaart wijzigen: klik op de groene knoppen met een zwart kruis om in te zoomen, op de groene knop met een streepje om uit te zoomen of op de groene pijlen voor aangrenzende kaarten.


METAR-TAF: